createdAt,value
2018-10-02T00:01:32.518Z,2.33
2018-10-02T00:03:59.671Z,2.47
2018-10-02T00:06:26.808Z,2.43
2018-10-02T00:08:53.997Z,2.20
2018-10-02T00:11:27.025Z,2.57
2018-10-02T00:13:59.859Z,2.23
2018-10-02T00:16:27.068Z,3.23
2018-10-02T00:18:54.224Z,2.30
2018-10-02T00:21:21.517Z,2.50
2018-10-02T00:23:48.794Z,2.77
2018-10-02T00:26:15.961Z,2.50
2018-10-02T00:28:43.111Z,2.70
2018-10-02T00:31:10.857Z,2.57
2018-10-02T00:33:38.108Z,2.83
2018-10-02T00:36:05.363Z,2.47
2018-10-02T00:38:32.666Z,2.33
2018-10-02T00:40:59.856Z,2.27
2018-10-02T00:43:27.018Z,2.07
2018-10-02T00:45:54.187Z,2.10
2018-10-02T00:48:21.342Z,2.33
2018-10-02T00:50:48.723Z,2.00
2018-10-02T00:53:15.958Z,2.07
2018-10-02T00:55:43.101Z,1.80
2018-10-02T00:58:10.242Z,2.43
2018-10-02T01:00:37.409Z,1.67
2018-10-02T01:03:04.598Z,2.17
2018-10-02T01:05:31.717Z,2.17
2018-10-02T01:07:58.869Z,2.20
2018-10-02T01:10:25.981Z,1.73
2018-10-02T01:12:53.117Z,1.70
2018-10-02T01:15:20.237Z,2.00
2018-10-02T01:17:47.360Z,2.00
2018-10-02T01:20:14.488Z,1.90
2018-10-02T01:22:41.612Z,1.87
2018-10-02T01:25:08.735Z,1.90
2018-10-02T01:27:35.856Z,1.70
2018-10-02T01:30:03.222Z,1.57
2018-10-02T01:32:30.372Z,1.70
2018-10-02T01:34:57.522Z,1.70
2018-10-02T01:37:24.738Z,1.80
2018-10-02T01:39:51.869Z,1.90
2018-10-02T01:42:18.947Z,1.90
2018-10-02T01:44:46.090Z,1.80
2018-10-02T01:47:13.241Z,1.93
2018-10-02T01:49:40.372Z,1.93
2018-10-02T01:52:07.723Z,1.77
2018-10-02T01:54:34.850Z,1.90
2018-10-02T01:57:01.998Z,1.80
2018-10-02T01:59:29.251Z,1.70
2018-10-02T02:01:56.469Z,1.70
2018-10-02T02:04:23.669Z,1.67
2018-10-02T02:06:50.856Z,2.00
2018-10-02T02:09:17.997Z,1.63
2018-10-02T02:11:45.174Z,1.70
2018-10-02T02:14:12.366Z,1.80
2018-10-02T02:16:39.493Z,1.70
2018-10-02T02:19:06.700Z,2.17
2018-10-02T02:21:33.848Z,2.03
2018-10-02T02:24:00.998Z,2.23
2018-10-02T02:26:28.175Z,2.03
2018-10-02T02:28:55.333Z,1.70
2018-10-02T02:31:22.472Z,1.50
2018-10-02T02:33:49.700Z,1.50
2018-10-02T02:36:16.849Z,1.80
2018-10-02T02:38:44.006Z,1.80
2018-10-02T02:41:11.130Z,1.70
2018-10-02T02:43:38.327Z,1.70
2018-10-02T02:46:06.017Z,1.30
2018-10-02T02:48:38.845Z,1.83
2018-10-02T02:51:11.653Z,1.80
2018-10-02T02:53:38.982Z,1.63
2018-10-02T02:56:06.109Z,2.10
2018-10-02T02:58:33.222Z,2.67
2018-10-02T03:01:00.434Z,2.00
2018-10-02T03:03:28.864Z,1.80
2018-10-02T03:05:55.961Z,1.53
2018-10-02T03:08:23.106Z,1.80
2018-10-02T03:10:50.221Z,1.47
2018-10-02T03:13:17.336Z,2.73
2018-10-02T03:15:44.429Z,1.90
2018-10-02T03:18:12.016Z,1.97
2018-10-02T03:20:39.116Z,2.10
2018-10-02T03:23:06.266Z,1.90
2018-10-02T03:25:33.396Z,2.00
2018-10-02T03:28:00.541Z,1.63
2018-10-02T03:30:27.642Z,2.03
2018-10-02T03:32:54.801Z,2.00
2018-10-02T03:35:21.923Z,1.80
2018-10-02T03:37:49.104Z,1.60
2018-10-02T03:40:16.242Z,1.80
2018-10-02T03:42:43.393Z,1.87
2018-10-02T03:45:10.498Z,2.40
2018-10-02T03:47:37.714Z,1.90
2018-10-02T03:50:04.806Z,2.00
2018-10-02T03:52:31.897Z,2.23
2018-10-02T03:54:59.120Z,2.10
2018-10-02T03:57:26.228Z,3.20
2018-10-02T03:59:53.369Z,2.43
2018-10-02T04:02:20.502Z,2.60
2018-10-02T04:04:48.576Z,1.93
2018-10-02T04:07:15.681Z,1.80
2018-10-02T04:09:42.813Z,3.50
2018-10-02T04:12:09.976Z,2.63
2018-10-02T04:14:37.086Z,3.10
2018-10-02T04:17:04.292Z,2.50
2018-10-02T04:19:31.459Z,2.40
2018-10-02T04:21:58.600Z,3.50
2018-10-02T04:24:25.763Z,2.33
2018-10-02T04:26:52.867Z,2.20
2018-10-02T04:29:19.965Z,2.40
2018-10-02T04:31:47.103Z,2.10
2018-10-02T04:34:14.412Z,3.60
2018-10-02T04:36:41.395Z,2.33
2018-10-02T04:39:08.628Z,2.17
2018-10-02T04:41:35.897Z,2.70
2018-10-02T04:44:03.081Z,2.60
2018-10-02T04:46:30.328Z,2.97
2018-10-02T04:48:57.450Z,3.50
2018-10-02T04:51:24.581Z,2.53
2018-10-02T04:53:51.748Z,2.50
2018-10-02T04:56:18.987Z,2.47
2018-10-02T04:58:46.160Z,2.30
2018-10-02T05:01:13.742Z,2.83
2018-10-02T05:03:40.867Z,2.90
2018-10-02T05:06:08.070Z,2.00
2018-10-02T05:08:35.274Z,3.00
2018-10-02T05:11:02.442Z,2.87
2018-10-02T05:13:29.590Z,3.03
2018-10-02T05:15:56.730Z,4.10
2018-10-02T05:18:23.846Z,3.33
2018-10-02T05:20:51.128Z,3.10
2018-10-02T05:23:18.398Z,3.70
2018-10-02T05:25:45.520Z,3.23
2018-10-02T05:28:12.770Z,3.10
2018-10-02T05:30:39.898Z,2.97
2018-10-02T05:33:07.106Z,3.67
2018-10-02T05:35:34.327Z,3.67
2018-10-02T05:38:01.394Z,3.73
2018-10-02T05:40:28.518Z,4.13
2018-10-02T05:42:55.707Z,4.20
2018-10-02T05:45:22.846Z,4.27
2018-10-02T05:47:50.111Z,3.80
2018-10-02T05:50:17.325Z,3.93
2018-10-02T05:52:44.492Z,3.50
2018-10-02T05:55:12.483Z,3.73
2018-10-02T05:57:39.772Z,3.83
2018-10-02T06:00:07.520Z,4.90
2018-10-02T06:02:34.734Z,4.23
2018-10-02T06:05:01.869Z,4.20
2018-10-02T06:07:29.096Z,4.17
2018-10-02T06:09:56.898Z,4.77
2018-10-02T06:12:24.007Z,3.90
2018-10-02T06:14:51.157Z,4.40
2018-10-02T06:17:18.485Z,4.07
2018-10-02T06:19:45.831Z,3.67
2018-10-02T06:22:13.020Z,5.03
2018-10-02T06:24:40.603Z,5.10
2018-10-02T06:27:08.086Z,4.47
2018-10-02T06:29:35.652Z,4.90
2018-10-02T06:32:02.956Z,4.40
2018-10-02T06:34:30.238Z,4.03
2018-10-02T06:36:58.592Z,4.20
2018-10-02T06:39:29.417Z,5.13
2018-10-02T06:41:56.829Z,4.93
2018-10-02T06:44:24.002Z,4.20
2018-10-02T06:46:51.126Z,4.43
2018-10-02T06:49:18.360Z,5.40
2018-10-02T06:51:45.745Z,4.93
2018-10-02T06:54:12.863Z,5.00
2018-10-02T06:56:40.132Z,4.50
2018-10-02T06:59:07.779Z,4.50
2018-10-02T07:01:34.993Z,4.73
2018-10-02T07:04:02.390Z,4.50
2018-10-02T07:06:29.581Z,4.57
2018-10-02T07:08:56.858Z,4.43
2018-10-02T07:11:23.909Z,4.00
2018-10-02T07:13:51.086Z,4.63
2018-10-02T07:16:18.278Z,4.43
2018-10-02T07:18:45.486Z,4.10
2018-10-02T07:21:12.785Z,3.67
2018-10-02T07:23:40.108Z,5.43
2018-10-02T07:26:07.426Z,4.43
2018-10-02T07:28:35.042Z,4.03
2018-10-02T07:31:02.283Z,3.70
2018-10-02T07:33:29.421Z,3.97
2018-10-02T07:35:56.640Z,3.40
2018-10-02T07:38:24.045Z,4.20
2018-10-02T07:40:51.167Z,4.10
2018-10-02T07:43:18.318Z,3.60
2018-10-02T07:45:45.586Z,2.83
2018-10-02T07:48:12.733Z,3.63
2018-10-02T07:50:39.936Z,4.37
2018-10-02T07:53:07.228Z,3.53
2018-10-02T07:55:34.551Z,3.20
2018-10-02T07:58:01.922Z,3.20
2018-10-02T08:00:29.299Z,3.00
2018-10-02T08:02:56.534Z,3.00
2018-10-02T08:05:23.736Z,2.87
2018-10-02T08:07:51.235Z,2.97
2018-10-02T08:10:18.357Z,2.90
2018-10-02T08:12:45.553Z,3.80
2018-10-02T08:15:12.692Z,2.80
2018-10-02T08:17:40.021Z,2.37
2018-10-02T08:20:07.143Z,3.20
2018-10-02T08:22:34.252Z,5.23
2018-10-02T08:25:01.386Z,3.40
2018-10-02T08:27:28.633Z,2.90
2018-10-02T08:29:55.887Z,3.27
2018-10-02T08:32:23.034Z,3.10
2018-10-02T08:34:50.179Z,2.43
2018-10-02T08:37:17.315Z,3.00
2018-10-02T08:39:44.552Z,3.17
2018-10-02T08:42:11.774Z,3.00
2018-10-02T08:44:39.041Z,3.07
2018-10-02T08:47:06.228Z,3.23
2018-10-02T08:49:33.550Z,2.77
2018-10-02T08:52:01.227Z,2.53
2018-10-02T08:54:28.433Z,2.27
2018-10-02T08:56:55.635Z,2.53
2018-10-02T08:59:23.044Z,2.70
2018-10-02T09:01:51.329Z,2.97
2018-10-02T09:04:18.572Z,2.90
2018-10-02T09:06:45.876Z,2.77
2018-10-02T09:09:13.387Z,2.40
2018-10-02T09:11:40.685Z,2.60
2018-10-02T09:14:07.908Z,2.07
2018-10-02T09:16:35.203Z,2.07
2018-10-02T09:19:02.410Z,2.80
2018-10-02T09:21:29.727Z,2.13
2018-10-02T09:23:57.142Z,3.23
2018-10-02T09:26:24.240Z,2.90
2018-10-02T09:28:51.531Z,2.20
2018-10-02T09:31:24.274Z,2.67
2018-10-02T09:33:56.962Z,3.10
2018-10-02T09:36:29.984Z,3.40
2018-10-02T09:39:02.941Z,3.67
2018-10-02T09:41:35.841Z,4.30
2018-10-02T09:44:03.922Z,2.63
2018-10-02T09:46:31.082Z,2.80
2018-10-02T09:48:58.385Z,2.27
2018-10-02T09:51:25.737Z,2.50
2018-10-02T09:53:52.992Z,2.33
2018-10-02T09:56:20.142Z,2.20
2018-10-02T09:58:47.523Z,2.00
2018-10-02T10:01:20.371Z,2.50
2018-10-02T10:03:48.014Z,2.10
2018-10-02T10:06:15.220Z,2.53
2018-10-02T10:08:42.508Z,2.50
2018-10-02T10:11:09.917Z,1.87
2018-10-02T10:13:37.233Z,2.30
2018-10-02T10:16:04.370Z,2.10
2018-10-02T10:18:31.611Z,2.70
2018-10-02T10:20:58.805Z,2.43
2018-10-02T10:23:26.101Z,1.80
2018-10-02T10:25:53.395Z,2.10
2018-10-02T10:28:20.815Z,2.17
2018-10-02T10:30:47.999Z,2.00
2018-10-02T10:33:15.291Z,2.60
2018-10-02T10:35:42.455Z,1.90
2018-10-02T10:38:10.244Z,2.20
2018-10-02T10:40:37.548Z,2.57
2018-10-02T10:43:05.780Z,2.63
2018-10-02T10:45:33.044Z,2.33
2018-10-02T10:48:00.449Z,2.03
2018-10-02T10:50:27.647Z,2.23
2018-10-02T10:52:55.243Z,2.37
2018-10-02T10:55:30.993Z,2.57
2018-10-02T10:57:58.173Z,2.80
2018-10-02T11:00:25.421Z,2.30
2018-10-02T11:02:52.736Z,2.87
2018-10-02T11:05:20.161Z,3.60
2018-10-02T11:07:47.329Z,2.50
2018-10-02T11:10:15.912Z,2.20
2018-10-02T11:12:44.038Z,2.50
2018-10-02T11:15:11.429Z,2.83
2018-10-02T11:17:38.763Z,2.90
2018-10-02T11:20:05.994Z,2.33
2018-10-02T11:22:34.189Z,2.73
2018-10-02T11:25:02.516Z,2.50
2018-10-02T11:27:29.719Z,3.37
2018-10-02T11:29:57.090Z,3.40
2018-10-02T11:32:24.302Z,2.43
2018-10-02T11:34:51.470Z,2.57
2018-10-02T11:37:18.734Z,2.63
2018-10-02T11:39:46.145Z,2.53
2018-10-02T11:42:13.346Z,3.10
2018-10-02T11:44:40.671Z,2.33
2018-10-02T11:47:08.390Z,2.63
2018-10-02T11:49:35.698Z,3.53
2018-10-02T11:52:03.070Z,2.80
2018-10-02T11:54:30.464Z,3.10
2018-10-02T11:56:58.257Z,3.00
2018-10-02T11:59:25.557Z,2.67
2018-10-02T12:01:53.382Z,3.17
2018-10-02T12:04:20.562Z,3.40
2018-10-02T12:06:47.884Z,3.27
2018-10-02T12:09:15.277Z,3.60
2018-10-02T12:11:42.555Z,2.70
2018-10-02T12:14:09.722Z,3.10
2018-10-02T12:16:36.935Z,2.90
2018-10-02T12:19:04.898Z,2.90
2018-10-02T12:21:32.080Z,3.03
2018-10-02T12:23:59.311Z,4.70
2018-10-02T12:26:26.433Z,3.17
2018-10-02T12:28:53.649Z,3.30
2018-10-02T12:31:21.042Z,2.30
2018-10-02T12:33:48.964Z,2.43
2018-10-02T12:36:16.229Z,2.40
2018-10-02T12:38:43.537Z,2.60
2018-10-02T12:41:10.545Z,3.13
2018-10-02T12:43:37.797Z,3.23
2018-10-02T12:46:05.191Z,3.00
2018-10-02T12:48:32.429Z,3.37
2018-10-02T12:50:59.788Z,2.60
2018-10-02T12:53:27.033Z,2.20
2018-10-02T12:55:54.346Z,2.63
2018-10-02T12:58:21.648Z,2.87
2018-10-02T13:00:48.903Z,2.77
2018-10-02T13:03:16.211Z,2.30
2018-10-02T13:05:43.441Z,2.70
2018-10-02T13:08:10.670Z,2.43
2018-10-02T13:10:38.219Z,2.43
2018-10-02T13:13:05.592Z,2.80
2018-10-02T13:15:32.912Z,2.40
2018-10-02T13:18:00.220Z,2.90
2018-10-02T13:20:27.498Z,2.20
2018-10-02T13:22:54.683Z,2.40
2018-10-02T13:25:21.975Z,2.90
2018-10-02T13:27:49.178Z,2.90
2018-10-02T13:30:16.378Z,2.60
2018-10-02T13:32:43.543Z,2.27
2018-10-02T13:35:10.874Z,2.50
2018-10-02T13:37:38.076Z,2.20
2018-10-02T13:40:05.486Z,2.63
2018-10-02T13:42:32.642Z,2.63
2018-10-02T13:44:59.922Z,2.60
2018-10-02T13:47:27.091Z,2.20
2018-10-02T13:49:54.285Z,3.13
2018-10-02T13:52:21.630Z,2.53
2018-10-02T13:54:48.897Z,2.73
2018-10-02T13:57:16.165Z,2.20
2018-10-02T13:59:43.347Z,2.50
2018-10-02T14:02:11.161Z,2.20
2018-10-02T14:04:38.271Z,4.10
2018-10-02T14:07:05.489Z,2.90
2018-10-02T14:09:32.906Z,2.53
2018-10-02T14:12:00.235Z,2.60
2018-10-02T14:14:28.389Z,2.43
2018-10-02T14:16:55.704Z,2.13
2018-10-02T14:19:22.887Z,2.20
2018-10-02T14:21:50.112Z,2.63
2018-10-02T14:24:17.432Z,3.90
2018-10-02T14:26:46.678Z,2.70
2018-10-02T14:29:13.927Z,3.90
2018-10-02T14:31:41.124Z,2.80
2018-10-02T14:34:08.668Z,2.20
2018-10-02T14:36:35.980Z,2.30
2018-10-02T14:39:04.680Z,3.23
2018-10-02T14:41:31.905Z,2.80
2018-10-02T14:43:59.140Z,2.87
2018-10-02T14:46:26.382Z,2.00
2018-10-02T14:48:53.634Z,2.30
2018-10-02T14:51:20.888Z,2.77
2018-10-02T14:53:48.094Z,2.73
2018-10-02T14:56:15.404Z,2.60
2018-10-02T14:58:42.653Z,3.00
2018-10-02T15:01:09.830Z,2.77
2018-10-02T15:03:37.127Z,3.60
2018-10-02T15:06:04.776Z,2.60
2018-10-02T15:08:32.360Z,2.90
2018-10-02T15:11:00.244Z,2.77
2018-10-02T15:13:27.850Z,3.00
2018-10-02T15:15:55.031Z,2.67
2018-10-02T15:18:22.262Z,3.17
2018-10-02T15:20:49.431Z,3.07
2018-10-02T15:23:16.804Z,2.60
2018-10-02T15:25:44.741Z,3.00
2018-10-02T15:28:12.083Z,2.87
2018-10-02T15:30:39.557Z,2.30
2018-10-02T15:33:06.719Z,3.10
2018-10-02T15:35:33.969Z,3.20
2018-10-02T15:38:01.390Z,2.50
2018-10-02T15:40:28.602Z,2.50
2018-10-02T15:42:56.016Z,2.73
2018-10-02T15:45:23.286Z,2.20
2018-10-02T15:47:50.489Z,3.00
2018-10-02T15:50:17.774Z,3.10
2018-10-02T15:52:44.878Z,2.80
2018-10-02T15:55:12.102Z,2.50
2018-10-02T15:57:40.000Z,3.20
2018-10-02T16:00:07.192Z,3.10
2018-10-02T16:02:34.459Z,2.60
2018-10-02T16:05:01.774Z,3.50
2018-10-02T16:07:29.041Z,2.53
2018-10-02T16:09:56.228Z,2.47
2018-10-02T16:12:23.468Z,3.73
2018-10-02T16:14:50.721Z,2.37
2018-10-02T16:17:17.961Z,2.83
2018-10-02T16:19:45.210Z,2.90
2018-10-02T16:22:12.445Z,2.23
2018-10-02T16:24:39.612Z,2.50
2018-10-02T16:27:06.884Z,3.87
2018-10-02T16:29:34.142Z,3.30
2018-10-02T16:32:01.899Z,3.40
2018-10-02T16:34:29.231Z,2.70
2018-10-02T16:36:56.613Z,2.80
2018-10-02T16:39:23.857Z,3.00
2018-10-02T16:41:51.057Z,3.10
2018-10-02T16:44:18.345Z,3.53
2018-10-02T16:46:45.575Z,3.30
2018-10-02T16:49:12.773Z,3.67
2018-10-02T16:51:40.023Z,3.90
2018-10-02T16:54:07.414Z,3.67
2018-10-02T16:56:34.597Z,4.70
2018-10-02T16:59:01.766Z,3.47
2018-10-02T17:01:28.989Z,3.50
2018-10-02T17:03:56.409Z,3.90
2018-10-02T17:06:23.605Z,3.77
2018-10-02T17:08:50.836Z,3.30
2018-10-02T17:11:18.050Z,3.60
2018-10-02T17:13:45.330Z,3.20
2018-10-02T17:16:12.563Z,3.80
2018-10-02T17:18:39.754Z,4.37
2018-10-02T17:21:06.916Z,3.67
2018-10-02T17:23:34.144Z,4.93
2018-10-02T17:26:01.334Z,3.33
2018-10-02T17:28:28.569Z,3.70
2018-10-02T17:30:55.711Z,4.80
2018-10-02T17:33:23.147Z,4.20
2018-10-02T17:35:50.334Z,3.90
2018-10-02T17:38:17.610Z,4.23
2018-10-02T17:40:44.910Z,4.00
2018-10-02T17:43:12.142Z,3.57
2018-10-02T17:45:39.692Z,4.10
2018-10-02T17:48:06.913Z,3.70
2018-10-02T17:50:34.142Z,4.07
2018-10-02T17:53:01.360Z,4.37
2018-10-02T17:55:28.549Z,3.53
2018-10-02T17:57:55.663Z,5.23
2018-10-02T18:00:22.914Z,4.50
2018-10-02T18:02:50.313Z,5.87
2018-10-02T18:05:17.942Z,5.63
2018-10-02T18:07:45.190Z,5.73
2018-10-02T18:10:12.456Z,5.30
2018-10-02T18:12:39.663Z,6.87
2018-10-02T18:15:07.303Z,8.77
2018-10-02T18:17:34.540Z,10.07
2018-10-02T18:20:01.772Z,7.20
2018-10-02T18:22:28.930Z,5.27
2018-10-02T18:24:56.168Z,11.37
2018-10-02T18:27:23.560Z,11.33
2018-10-02T18:29:51.054Z,8.37
2018-10-02T18:32:18.288Z,7.80
2018-10-02T18:34:45.633Z,6.83
2018-10-02T18:37:12.847Z,7.57
2018-10-02T18:39:40.008Z,9.30
2018-10-02T18:42:07.413Z,8.63
2018-10-02T18:44:34.566Z,8.73
2018-10-02T18:47:01.781Z,6.53
2018-10-02T18:49:29.091Z,6.03
2018-10-02T18:51:56.296Z,7.20
2018-10-02T18:54:23.481Z,7.40
2018-10-02T18:56:50.728Z,7.60
2018-10-02T18:59:17.938Z,6.10
2018-10-02T19:01:45.191Z,6.83
2018-10-02T19:04:12.571Z,6.73
2018-10-02T19:06:39.930Z,6.20
2018-10-02T19:09:15.582Z,5.93
2018-10-02T19:11:48.643Z,6.50
2018-10-02T19:14:16.696Z,5.57
2018-10-02T19:16:44.680Z,6.30
2018-10-02T19:19:17.652Z,7.00
2018-10-02T19:21:45.104Z,6.03
2018-10-02T19:24:12.860Z,5.90
2018-10-02T19:26:40.051Z,6.60
2018-10-02T19:29:07.342Z,6.37
2018-10-02T19:31:40.356Z,5.70
2018-10-02T19:34:07.690Z,5.20
2018-10-02T19:36:34.973Z,5.17
2018-10-02T19:39:06.638Z,5.47
2018-10-02T19:41:33.884Z,6.00
2018-10-02T19:44:01.226Z,5.40
2018-10-02T19:46:34.431Z,5.70
2018-10-02T19:49:01.743Z,5.20
2018-10-02T19:51:34.725Z,5.40
2018-10-02T19:54:01.938Z,5.30
2018-10-02T19:56:29.128Z,5.80
2018-10-02T19:58:56.378Z,5.40
2018-10-02T20:01:23.647Z,5.10
2018-10-02T20:03:50.959Z,4.97
2018-10-02T20:06:18.627Z,4.90
2018-10-02T20:08:46.431Z,4.67
2018-10-02T20:11:13.653Z,5.87
2018-10-02T20:13:41.100Z,5.20
2018-10-02T20:16:08.176Z,5.83
2018-10-02T20:18:35.536Z,5.40
2018-10-02T20:21:02.709Z,6.30
2018-10-02T20:23:29.895Z,6.57
2018-10-02T20:25:57.421Z,4.87
2018-10-02T20:28:24.623Z,5.00
2018-10-02T20:30:51.902Z,4.63
2018-10-02T20:33:19.131Z,5.20
2018-10-02T20:35:46.391Z,5.40
2018-10-02T20:38:13.610Z,3.70
2018-10-02T20:40:40.836Z,3.87
2018-10-02T20:43:08.106Z,4.20
2018-10-02T20:45:35.822Z,3.30
2018-10-02T20:48:03.140Z,3.70
2018-10-02T20:50:30.481Z,3.77
2018-10-02T20:52:57.755Z,4.17
2018-10-02T20:55:25.136Z,3.70
2018-10-02T20:57:52.401Z,4.10
2018-10-02T21:00:19.569Z,3.90
2018-10-02T21:02:46.863Z,5.00
2018-10-02T21:05:14.106Z,4.80
2018-10-02T21:07:41.370Z,4.70
2018-10-02T21:10:08.552Z,4.50
2018-10-02T21:12:35.782Z,4.93
2018-10-02T21:15:03.014Z,5.90
2018-10-02T21:17:30.189Z,6.40
2018-10-02T21:19:57.470Z,5.70
2018-10-02T21:22:24.672Z,6.10
2018-10-02T21:24:51.859Z,6.50
2018-10-02T21:27:19.031Z,6.20
2018-10-02T21:29:46.215Z,6.50
2018-10-02T21:32:13.475Z,6.07
2018-10-02T21:34:40.954Z,7.10
2018-10-02T21:37:08.067Z,7.40
2018-10-02T21:39:35.394Z,7.83
2018-10-02T21:42:02.591Z,6.90
2018-10-02T21:44:29.820Z,8.00
2018-10-02T21:46:57.226Z,7.50
2018-10-02T21:49:24.430Z,7.63
2018-10-02T21:51:51.640Z,7.50
2018-10-02T21:54:18.803Z,8.07
2018-10-02T21:56:45.957Z,7.93
2018-10-02T21:59:13.156Z,8.00
2018-10-02T22:01:40.363Z,8.40
2018-10-02T22:04:08.111Z,8.70
2018-10-02T22:06:35.362Z,7.40
2018-10-02T22:09:02.649Z,8.13
2018-10-02T22:11:29.815Z,7.73
2018-10-02T22:13:57.222Z,8.20
2018-10-02T22:16:24.426Z,9.30
2018-10-02T22:18:51.760Z,8.70
2018-10-02T22:21:19.170Z,7.40
2018-10-02T22:23:46.334Z,8.17
2018-10-02T22:26:13.531Z,8.67
2018-10-02T22:28:40.676Z,7.07
2018-10-02T22:31:08.015Z,6.03
2018-10-02T22:33:35.197Z,5.57
2018-10-02T22:36:02.403Z,5.53
2018-10-02T22:38:29.582Z,6.40
2018-10-02T22:40:56.813Z,6.17
2018-10-02T22:43:23.947Z,5.70
2018-10-02T22:45:51.121Z,5.40
2018-10-02T22:48:18.289Z,5.20
2018-10-02T22:50:45.461Z,5.10
2018-10-02T22:53:12.689Z,5.30
2018-10-02T22:55:40.245Z,6.10
2018-10-02T22:58:07.401Z,4.83
2018-10-02T23:00:34.953Z,5.10
2018-10-02T23:03:02.247Z,4.93
2018-10-02T23:05:29.547Z,5.17
2018-10-02T23:07:57.060Z,5.67
2018-10-02T23:10:24.265Z,5.50
2018-10-02T23:12:51.411Z,5.77
2018-10-02T23:15:18.585Z,6.20
2018-10-02T23:17:45.800Z,5.67
2018-10-02T23:20:12.969Z,6.50
2018-10-02T23:22:41.525Z,7.60
2018-10-02T23:25:08.724Z,7.30
2018-10-02T23:27:35.977Z,6.80
2018-10-02T23:30:03.146Z,6.83
2018-10-02T23:32:30.436Z,12.17
2018-10-02T23:34:57.598Z,6.67
2018-10-02T23:37:24.823Z,7.83
2018-10-02T23:39:51.998Z,8.07
2018-10-02T23:42:19.162Z,8.43
2018-10-02T23:44:46.506Z,8.30
2018-10-02T23:47:13.679Z,8.40
2018-10-02T23:49:40.833Z,7.80
2018-10-02T23:52:08.042Z,9.07
2018-10-02T23:54:35.233Z,8.40
2018-10-02T23:57:02.484Z,8.40
2018-10-02T23:59:29.805Z,8.40
